Current | Forecast
Updated: 3:30 PM CET on December 13, 2017
Observed at Prague, Czech Republic
Temperature 37°F
Windchill 30°F
Humidity 60%
Dew Point 25°F
Wind South at 10 mph
Pressure 29.80 in (Falling)
Conditions Clear
Visibility -
UV N/A
Clouds
Yesterday's Maximum 43°F
Yesterday's Minimum 34°F approx.
Yesterday's Heating Degree Days 27 approx.
Sunrise7:53 AM CET
Sunset4:00 PM CET
Moon Rise2:32 AM CET
Moon Set1:56 PM CET
Moon PhaseMoon Phase
Waning Crescent
Raw METARMETAR LKPR 131430Z 18009KT CAVOK 03/M04 Q1009 NOSIG


Monday
. High: 62° F.
Tuesday
. High: 69° F.
Wednesday
. High: 78° F.
Thursday
. High: 59° F.
Friday
. High: 60° F.
Saturday
. High: 66° F.
Sunday
. High: 69° F.
Monday
. High: 60° F.

Units: English | Metric

Find the Weather for any City, State or Zipcode, or Country:

U.S. State List | Severe Weather | Tropical Storms | Ski Conditions
United States | Canada | Central America | South America | Asia | Europe | Australia | Africa | Islands

Weather Underground

© Copyright 2017
The Weather Company, LLC